Time;durP1;ratioP1;P1;durP2;ratioP2;P2;SDS_P1;SDS_P2;PMS_P1;PMS_P2;Temp;Humidity;BMP_temperature;BMP_pressure;BME280_temperature;BME280_humidity;BME280_pressure;Samples;Min_cycle;Max_cycle;Signal;HPM_P1;HPM_P2
2024/01/25 00:00:44;;;;;;;0.00;0.00;;;;;;;5.89;100.00;101692.56;4957756;28;20025;-78
2024/01/25 00:03:09;;;;;;;0.00;0.00;;;;;;;5.92;100.00;101697.56;4995417;28;20022;-79
2024/01/25 00:05:35;;;;;;;0.10;0.10;;;;;;;5.86;100.00;101676.69;4973483;28;20500;-78
2024/01/25 00:08:00;;;;;;;0.00;0.00;;;;;;;5.98;100.00;101685.91;4982715;28;20031;-77
2024/01/25 00:10:26;;;;;;;0.00;0.00;;;;;;;6.15;100.00;101690.97;4989755;28;20009;-77
2024/01/25 00:12:51;;;;;;;0.10;0.10;;;;;;;6.24;100.00;101687.03;4975979;28;20026;-75
2024/01/25 00:15:17;;;;;;;0.10;0.10;;;;;;;6.37;100.00;101689.78;4949479;28;20153;-75
2024/01/25 00:17:45;;;;;;;0.00;0.00;;;;;;;6.47;100.00;101684.75;4965886;28;20030;-75
2024/01/25 00:20:11;;;;;;;0.00;0.00;;;;;;;6.51;100.00;101678.91;4994851;28;20042;-76
2024/01/25 00:22:38;;;;;;;0.00;0.00;;;;;;;6.70;100.00;101686.25;4999770;28;20029;-76
2024/01/25 00:28:33;;;;;;;0.00;0.00;;;;;;;6.95;100.00;101688.28;4986917;28;20122;-76
2024/01/25 00:31:21;;;;;;;0.10;0.10;;;;;;;7.10;100.00;101688.91;4992042;28;20053;-76
2024/01/25 00:33:49;;;;;;;0.00;0.00;;;;;;;7.15;100.00;101689.13;4979099;28;20042;-75
2024/01/25 00:36:17;;;;;;;0.00;0.00;;;;;;;7.04;100.00;101665.28;4980804;28;21627;-76
2024/01/25 00:38:43;;;;;;;0.00;0.00;;;;;;;7.03;100.00;101666.34;4971181;28;20114;-78
2024/01/25 00:41:10;;;;;;;0.00;0.00;;;;;;;7.16;100.00;101677.19;4974680;28;20045;-77
2024/01/25 00:43:36;;;;;;;0.00;0.00;;;;;;;7.08;100.00;101662.97;4977476;28;20033;-77
2024/01/25 00:46:04;;;;;;;0.00;0.00;;;;;;;7.33;100.00;101690.34;4968733;28;20369;-77
2024/01/25 00:48:32;;;;;;;0.00;0.00;;;;;;;7.25;100.00;101675.06;4977497;28;20034;-77
2024/01/25 00:50:58;;;;;;;0.00;0.00;;;;;;;7.15;100.00;101656.50;4986256;28;20022;-77
2024/01/25 00:53:24;;;;;;;0.10;0.10;;;;;;;7.23;100.00;101654.56;4992043;28;20625;-76
2024/01/25 00:55:59;;;;;;;0.00;0.00;;;;;;;7.30;100.00;101655.38;4985546;28;20049;-76
2024/01/25 00:58:42;;;;;;;0.00;0.00;;;;;;;7.16;100.00;101625.50;4959429;28;20653;-75
2024/01/25 01:01:11;;;;;;;0.00;0.00;;;;;;;7.29;100.00;101631.97;4990166;28;20071;-77
2024/01/25 01:03:39;;;;;;;0.10;0.10;;;;;;;7.38;100.00;101647.00;5005365;28;20030;-76
2024/01/25 01:06:08;;;;;;;0.00;0.00;;;;;;;7.49;100.00;101653.63;4975301;28;20019;-76
2024/01/25 01:08:36;;;;;;;0.00;0.00;;;;;;;7.60;100.00;101660.31;4981620;28;20037;-76
2024/01/25 01:11:05;;;;;;;0.00;0.00;;;;;;;7.61;100.00;101659.25;4985158;28;20473;-78
2024/01/25 01:13:30;;;;;;;0.00;0.00;;;;;;;7.69;100.00;101665.31;4971280;28;20074;-77
2024/01/25 01:15:55;;;;;;;0.00;0.00;;;;;;;7.57;100.00;101645.25;4961586;28;20025;-78
2024/01/25 01:18:21;;;;;;;0.00;0.00;;;;;;;7.76;100.00;101664.44;4997863;28;20019;-78
2024/01/25 01:20:47;;;;;;;0.00;0.00;;;;;;;7.64;100.00;101642.50;4968491;28;20038;-76
2024/01/25 01:23:15;;;;;;;0.00;0.00;;;;;;;7.77;100.00;101656.03;4994382;28;20026;-79
2024/01/25 01:25:45;;;;;;;0.00;0.00;;;;;;;7.78;100.00;101643.25;4967208;28;20077;-78
2024/01/25 01:28:13;;;;;;;0.00;0.00;;;;;;;7.72;100.00;101631.34;4972402;28;20088;-78
2024/01/25 01:30:41;;;;;;;0.00;0.00;;;;;;;7.82;100.00;101648.03;5004567;28;20021;-78
2024/01/25 01:33:10;;;;;;;0.00;0.00;;;;;;;7.83;100.00;101638.00;4975642;28;20026;-77
2024/01/25 01:35:40;;;;;;;0.00;0.00;;;;;;;7.97;100.00;101658.66;4969913;28;20033;-76
2024/01/25 01:38:07;;;;;;;0.00;0.00;;;;;;;7.84;100.00;101640.50;4981577;28;20175;-78
2024/01/25 01:40:32;;;;;;;0.00;0.00;;;;;;;7.90;100.00;101636.06;4980763;28;20045;-76
2024/01/25 01:43:09;;;;;;;0.00;0.00;;;;;;;7.97;100.00;101641.47;4996405;28;20038;-78
2024/01/25 01:45:44;;;;;;;0.00;0.00;;;;;;;7.89;100.00;101631.69;5010281;28;20049;-77
2024/01/25 01:48:33;;;;;;;0.00;0.00;;;;;;;7.85;100.00;101616.81;4967577;28;20042;-75
2024/01/25 01:51:07;;;;;;;0.00;0.00;;;;;;;7.81;100.00;101605.53;4998477;28;20025;-76
2024/01/25 01:53:36;;;;;;;0.00;0.00;;;;;;;7.65;100.00;101576.94;4990481;28;20037;-76
2024/01/25 01:56:05;;;;;;;0.00;0.00;;;;;;;7.74;100.00;101585.69;4990294;28;20033;-78
2024/01/25 01:58:31;;;;;;;0.00;0.00;;;;;;;7.91;100.00;101606.94;4992195;28;20048;-77
2024/01/25 02:00:59;;;;;;;0.00;0.00;;;;;;;7.89;100.00;101598.16;4977961;28;20039;-77
2024/01/25 02:06:28;;;;;;;0.00;0.00;;;;;;;7.72;100.00;101590.50;4996716;28;20026;-78
2024/01/25 02:08:55;;;;;;;0.10;0.10;;;;;;;7.88;100.00;101618.28;4980518;28;20022;-79
2024/01/25 02:11:26;;;;;;;0.00;0.00;;;;;;;7.80;100.00;101605.75;4988209;28;20054;-77
2024/01/25 02:13:52;;;;;;;0.08;0.08;;;;;;;7.92;100.00;101620.34;4978909;28;20030;-77
2024/01/25 02:16:45;;;;;;;;;;;;;;;;;;;;;
2024/01/25 02:20:04;;;;;;;0.00;0.00;;;;;;;8.05;100.00;101613.97;4986823;28;20085;-79
2024/01/25 02:22:46;;;;;;;0.00;0.00;;;;;;;7.88;100.00;101574.69;4961056;28;20034;-78
2024/01/25 02:25:11;;;;;;;0.00;0.00;;;;;;;7.85;100.00;101574.06;4980205;28;20025;-77
2024/01/25 02:27:38;;;;;;;0.00;0.00;;;;;;;8.00;100.00;101589.28;4981315;28;20030;-76
2024/01/25 02:30:10;;;;;;;0.00;0.00;;;;;;;8.14;100.00;101617.28;5004816;28;20022;-77
2024/01/25 02:32:36;;;;;;;0.00;0.00;;;;;;;8.03;100.00;101594.28;5011122;28;20519;-77
2024/01/25 02:35:01;;;;;;;0.00;0.00;;;;;;;8.16;100.00;101615.16;4977180;28;20393;-76
2024/01/25 02:37:27;;;;;;;0.00;0.00;;;;;;;8.08;100.00;101597.19;4991786;28;20080;-77
2024/01/25 02:39:53;;;;;;;0.00;0.00;;;;;;;8.08;100.00;101585.47;4970397;28;20062;-75
2024/01/25 02:42:28;;;;;;;0.00;0.00;;;;;;;8.17;100.00;101595.84;4995902;28;20366;-77
2024/01/25 02:44:56;;;;;;;0.00;0.00;;;;;;;8.12;100.00;101582.06;4981789;28;20077;-77
2024/01/25 02:47:22;;;;;;;0.00;0.00;;;;;;;8.12;100.00;101570.31;4953175;28;20077;-77
2024/01/25 02:49:47;;;;;;;0.00;0.00;;;;;;;8.26;100.00;101588.22;4952519;28;20072;-76
2024/01/25 02:52:16;;;;;;;0.00;0.00;;;;;;;8.14;100.00;101569.06;4947741;28;20110;-77
2024/01/25 02:54:41;;;;;;;0.00;0.00;;;;;;;8.17;100.00;101568.59;4956549;28;20030;-78
2024/01/25 02:57:06;;;;;;;0.00;0.00;;;;;;;8.24;100.00;101573.19;4957661;28;20030;-75
2024/01/25 02:59:35;;;;;;;0.00;0.00;;;;;;;8.13;100.00;101561.94;4960366;28;20034;-77
2024/01/25 03:02:06;;;;;;;0.00;0.00;;;;;;;8.01;100.00;101541.91;4947625;28;20034;-77
2024/01/25 03:04:34;;;;;;;0.00;0.00;;;;;;;8.15;100.00;101568.00;4957053;28;20038;-77
2024/01/25 03:07:09;;;;;;;0.00;0.00;;;;;;;7.89;100.00;101536.34;4964408;28;20061;-78
2024/01/25 03:09:34;;;;;;;0.00;0.00;;;;;;;7.83;100.00;101523.63;4980555;28;20041;-78
2024/01/25 03:12:11;;;;;;;0.00;0.00;;;;;;;7.87;100.00;101541.19;4996924;28;20066;-78
2024/01/25 03:14:39;;;;;;;0.00;0.00;;;;;;;7.68;100.00;101488.53;4983428;28;20050;-79
2024/01/25 03:17:07;;;;;;;0.00;0.00;;;;;;;7.90;100.00;101518.09;4966022;28;20027;-79
2024/01/25 03:19:34;;;;;;;0.00;0.00;;;;;;;7.91;100.00;101501.53;4964044;28;20779;-78
2024/01/25 03:22:01;;;;;;;0.00;0.00;;;;;;;7.85;100.00;101495.09;4960547;28;20108;-77
2024/01/25 03:24:26;;;;;;;0.00;0.00;;;;;;;8.02;100.00;101510.91;4966352;28;20026;-77
2024/01/25 03:26:52;;;;;;;0.10;0.10;;;;;;;7.91;100.00;101481.66;4972887;28;20045;-79
2024/01/25 03:29:17;;;;;;;0.00;0.00;;;;;;;8.14;100.00;101502.84;4947314;28;20064;-79
2024/01/25 03:31:43;;;;;;;0.00;0.00;;;;;;;8.13;100.00;101501.16;4980154;28;20038;-78
2024/01/25 03:34:25;;;;;;;0.00;0.00;;;;;;;7.98;100.00;101482.44;4973648;28;20030;-79
2024/01/25 03:36:53;;;;;;;0.10;0.10;;;;;;;8.09;100.00;101506.22;4957578;28;20030;-77
2024/01/25 03:39:21;;;;;;;0.00;0.00;;;;;;;7.92;100.00;101486.88;4961502;28;20524;-78
2024/01/25 03:41:46;;;;;;;0.00;0.00;;;;;;;7.95;100.00;101491.06;4952537;28;20042;-76
2024/01/25 03:44:12;;;;;;;0.00;0.00;;;;;;;7.94;100.00;101486.66;4988194;28;20026;-78
2024/01/25 03:46:37;;;;;;;0.00;0.00;;;;;;;7.95;100.00;101475.53;4977562;28;20066;-76
2024/01/25 03:49:04;;;;;;;0.00;0.00;;;;;;;8.04;100.00;101485.13;4979109;28;20034;-77
2024/01/25 03:51:29;;;;;;;0.00;0.00;;;;;;;8.19;100.00;101495.66;5007706;28;20034;-76
2024/01/25 03:53:58;;;;;;;0.00;0.00;;;;;;;8.23;100.00;101484.31;4998221;28;20072;-77
2024/01/25 03:56:28;;;;;;;0.00;0.00;;;;;;;8.19;100.00;101473.88;4984559;28;20022;-78
2024/01/25 03:59:03;;;;;;;0.00;0.00;;;;;;;8.21;100.00;101482.63;4996059;28;20025;-78
2024/01/25 04:01:33;;;;;;;0.00;0.00;;;;;;;8.24;100.00;101458.72;4990741;28;20460;-78
2024/01/25 04:03:58;;;;;;;0.00;0.00;;;;;;;8.22;100.00;101445.34;4977169;28;20021;-77
2024/01/25 04:06:24;;;;;;;0.00;0.00;;;;;;;8.36;100.00;101478.72;4981488;28;20034;-74
2024/01/25 04:08:49;;;;;;;0.00;0.00;;;;;;;8.30;100.00;101452.38;4987837;28;20117;-74
2024/01/25 04:11:15;;;;;;;0.00;0.00;;;;;;;8.36;100.00;101467.81;4980709;28;20030;-74
2024/01/25 04:13:42;;;;;;;0.00;0.00;;;;;;;8.21;100.00;101441.75;4978018;28;20036;-76
2024/01/25 04:16:10;;;;;;;0.00;0.00;;;;;;;8.34;100.00;101459.06;4976841;28;20025;-76
2024/01/25 04:18:41;;;;;;;0.00;0.00;;;;;;;8.37;100.00;101464.03;4988566;28;20525;-76
2024/01/25 04:21:30;;;;;;;0.00;0.00;;;;;;;8.35;100.00;101450.66;5095831;27;20734;-76
2024/01/25 04:23:56;;;;;;;0.00;0.00;;;;;;;8.40;100.00;101452.69;5092513;28;20040;-76
2024/01/25 04:26:26;;;;;;;0.00;0.00;;;;;;;8.26;100.00;101441.06;5065604;28;20020;-76
2024/01/25 04:28:52;;;;;;;0.00;0.00;;;;;;;8.47;100.00;101469.84;5086756;28;20025;-76
2024/01/25 04:31:25;;;;;;;0.00;0.00;;;;;;;8.46;100.00;101473.63;5086593;28;20031;-76
2024/01/25 04:33:53;;;;;;;0.00;0.00;;;;;;;8.30;100.00;101441.47;5094004;28;20035;-74
2024/01/25 04:36:18;;;;;;;0.00;0.00;;;;;;;8.16;100.00;101424.41;5042466;28;20040;-76
2024/01/25 04:38:46;;;;;;;0.00;0.00;;;;;;;8.26;100.00;101440.25;5065341;28;20077;-76
2024/01/25 04:41:17;;;;;;;0.00;0.00;;;;;;;8.19;100.00;101419.38;5078362;28;20032;-76
2024/01/25 04:43:44;;;;;;;0.00;0.00;;;;;;;8.39;100.00;101456.47;5066486;28;20024;-76
2024/01/25 04:46:12;;;;;;;0.00;0.00;;;;;;;8.35;100.00;101444.34;5056971;28;20158;-76
2024/01/25 04:48:45;;;;;;;0.00;0.00;;;;;;;8.20;100.00;101423.72;5102315;28;20070;-77
2024/01/25 04:51:16;;;;;;;0.00;0.00;;;;;;;8.23;100.00;101429.81;5064137;28;20046;-76
2024/01/25 04:53:41;;;;;;;0.00;0.00;;;;;;;8.32;100.00;101444.78;5071982;28;20052;-76
2024/01/25 04:56:06;;;;;;;0.00;0.00;;;;;;;8.31;100.00;101443.97;5087782;28;20036;-75
2024/01/25 04:58:32;;;;;;;0.00;0.00;;;;;;;8.26;100.00;101432.91;5086535;28;20017;-76
2024/01/25 05:00:57;;;;;;;0.00;0.00;;;;;;;8.40;100.00;101452.69;5065395;28;20020;-75
2024/01/25 05:03:23;;;;;;;0.00;0.00;;;;;;;8.39;100.00;101451.00;5086502;28;20187;-76
2024/01/25 05:05:51;;;;;;;0.00;0.00;;;;;;;8.31;100.00;101421.31;5085142;28;20107;-75
2024/01/25 05:08:19;;;;;;;0.00;0.00;;;;;;;8.34;100.00;101415.44;5083194;28;20020;-77
2024/01/25 05:10:44;;;;;;;0.00;0.00;;;;;;;8.31;100.00;101410.41;5101563;28;20018;-76
2024/01/25 05:13:10;;;;;;;0.00;0.00;;;;;;;8.41;100.00;101421.66;5088414;28;20024;-77
2024/01/25 05:15:35;;;;;;;0.00;0.00;;;;;;;8.34;100.00;101415.44;5094395;28;20115;-74
2024/01/25 05:18:07;;;;;;;0.00;0.00;;;;;;;8.39;100.00;101407.41;5081444;28;20032;-77
2024/01/25 05:20:37;;;;;;;0.00;0.00;;;;;;;8.31;100.00;101385.88;5081537;28;20040;-78
2024/01/25 05:23:06;;;;;;;0.00;0.00;;;;;;;8.42;100.00;101404.22;5070037;28;20096;-78
2024/01/25 05:25:32;;;;;;;0.00;0.00;;;;;;;8.38;100.00;101394.81;5082878;28;20092;-76
2024/01/25 05:28:00;;;;;;;0.00;0.00;;;;;;;8.34;100.00;101383.56;5085695;28;20052;-76
2024/01/25 05:30:27;;;;;;;0.00;0.00;;;;;;;8.35;100.00;101379.78;5068777;28;20563;-75
2024/01/25 05:32:54;;;;;;;0.00;0.00;;;;;;;8.41;100.00;101388.94;5055901;28;20440;-76
2024/01/25 05:35:20;;;;;;;0.00;0.00;;;;;;;8.42;100.00;101389.78;5057480;28;20024;-77
2024/01/25 05:37:45;;;;;;;0.00;0.00;;;;;;;8.46;100.00;101400.00;5073422;28;20495;-76
2024/01/25 05:40:13;;;;;;;0.00;0.00;;;;;;;8.53;100.00;101405.41;5058245;28;20024;-75
2024/01/25 05:42:42;;;;;;;0.00;0.00;;;;;;;8.46;100.00;101391.84;5063505;28;20424;-75
2024/01/25 05:45:08;;;;;;;0.00;0.00;;;;;;;8.60;100.00;101408.88;5061250;28;20032;-78
2024/01/25 05:47:34;;;;;;;0.00;0.00;;;;;;;8.65;100.00;101394.56;5080152;28;20421;-75
2024/01/25 05:50:00;;;;;;;0.00;0.00;;;;;;;8.47;100.00;101371.69;5072413;28;20016;-75
2024/01/25 05:52:37;;;;;;;;;;;;;;;;;;;;;
2024/01/25 05:55:05;;;;;;;0.00;0.00;;;;;;;8.70;100.00;101400.97;5072555;28;20037;-76
2024/01/25 05:57:34;;;;;;;0.00;0.00;;;;;;;8.53;100.00;101376.22;5073486;28;20031;-77
2024/01/25 06:00:07;;;;;;;0.00;0.00;;;;;;;8.74;100.00;101404.06;5057081;28;20021;-77
2024/01/25 06:02:33;;;;;;;0.00;0.00;;;;;;;8.60;100.00;101383.50;5075278;28;20120;-76
2024/01/25 06:04:58;;;;;;;0.00;0.00;;;;;;;8.64;100.00;101387.44;5086717;28;20139;-75
2024/01/25 06:07:30;;;;;;;0.10;0.10;;;;;;;8.66;100.00;101379.84;5073494;28;20032;-77
2024/01/25 06:09:57;;;;;;;0.00;0.00;;;;;;;8.77;100.00;101398.16;5051254;28;20021;-76
2024/01/25 06:12:26;;;;;;;0.00;0.00;;;;;;;8.61;100.00;101366.06;5059738;28;20039;-77
2024/01/25 06:14:54;;;;;;;0.00;0.00;;;;;;;8.53;100.00;101342.69;5055742;28;20482;-76
2024/01/25 06:17:19;;;;;;;0.00;0.00;;;;;;;8.68;100.00;101361.38;5064208;28;20021;-77
2024/01/25 06:19:47;;;;;;;0.00;0.00;;;;;;;8.61;100.00;101334.19;5049726;28;20670;-74
2024/01/25 06:22:12;;;;;;;0.00;0.00;;;;;;;8.69;100.00;101352.13;5036639;28;20035;-76
2024/01/25 06:24:38;;;;;;;0.00;0.00;;;;;;;8.85;100.00;101373.28;5053220;28;20032;-76
2024/01/25 06:27:06;;;;;;;0.00;0.00;;;;;;;8.90;100.00;101361.69;5048333;28;20119;-76
2024/01/25 06:29:34;;;;;;;0.00;0.00;;;;;;;8.77;100.00;101327.25;5070992;28;20504;-77
2024/01/25 06:31:59;;;;;;;0.00;0.00;;;;;;;8.82;100.00;101341.03;5057493;28;20032;-75
2024/01/25 06:34:30;;;;;;;0.00;0.00;;;;;;;8.90;100.00;101353.50;5062081;28;20029;-76
2024/01/25 06:36:58;;;;;;;0.00;0.00;;;;;;;8.88;100.00;101342.81;5059952;28;20118;-76
2024/01/25 06:39:28;;;;;;;0.00;0.00;;;;;;;8.82;100.00;101335.56;5073396;28;20062;-76
2024/01/25 06:42:03;;;;;;;0.00;0.00;;;;;;;8.95;100.00;101344.63;5041650;28;20490;-78
2024/01/25 06:44:34;;;;;;;0.00;0.00;;;;;;;9.00;100.00;101334.69;5070760;28;20040;-77
2024/01/25 06:47:11;;;;;;;0.00;0.00;;;;;;;8.99;100.00;101322.09;5064910;28;20077;-77
2024/01/25 06:49:49;;;;;;;;;;;;;;;;;;;;;
2024/01/25 06:52:18;;;;;;;0.00;0.00;;;;;;;9.13;100.00;101309.09;5070384;28;20141;-78
2024/01/25 06:54:44;;;;;;;0.10;0.10;;;;;;;9.13;100.00;101297.34;5039826;28;20032;-76
2024/01/25 06:57:19;;;;;;;;;;;;;;;;;;;;;
2024/01/25 06:59:45;;;;;;;0.00;0.00;;;;;;;9.51;100.00;101354.22;5062864;28;20027;-75
2024/01/25 07:02:26;;;;;;;0.00;0.00;;;;;;;9.39;100.00;101328.81;5063153;28;20084;-75
2024/01/25 07:05:01;;;;;;;0.00;0.00;;;;;;;9.48;100.00;101332.84;5066376;28;20051;-76
2024/01/25 07:07:26;;;;;;;0.00;0.00;;;;;;;9.45;100.00;101333.34;5073809;28;20091;-75
2024/01/25 07:09:52;;;;;;;0.00;0.00;;;;;;;9.26;100.00;101302.56;5088728;28;20000;-77
2024/01/25 07:12:30;;;;;;;;;;;;;;;;;;;;;
2024/01/25 07:15:19;;;;;;;0.00;0.00;;;;;;;9.55;100.00;101343.66;5077012;28;20026;-76
2024/01/25 07:17:50;;;;;;;0.00;0.00;;;;;;;9.23;100.00;101297.59;5059719;28;20060;-77
2024/01/25 07:21:14;;;;;;;0.00;0.00;;;;;;;9.53;100.00;101354.81;5049682;28;20056;-78
2024/01/25 07:24:00;;;;;;;0.00;0.00;;;;;;;9.39;100.00;101320.63;4995314;28;20044;-76
2024/01/25 07:26:50;;;;;;;0.00;0.00;;;;;;;9.33;100.00;101305.19;5056471;28;20102;-76
2024/01/25 07:29:16;;;;;;;0.00;0.00;;;;;;;9.59;100.00;101345.69;5074550;28;20032;-74
2024/01/25 07:31:52;;;;;;;0.00;0.00;;;;;;;9.67;100.00;101352.69;5063407;28;20115;-79
2024/01/25 07:35:02;;;;;;;;;;;;;;;;;;;;;
2024/01/25 07:37:37;;;;;;;0.00;0.00;;;;;;;9.54;100.00;101331.91;5050527;28;20029;-76
2024/01/25 07:40:39;;;;;;;0.00;0.00;;;;;;;9.59;100.00;101334.78;5059116;28;20036;-79
2024/01/25 07:43:24;;;;;;;;;;;;;;;;;;;;;
2024/01/25 07:45:56;;;;;;;0.00;0.00;;;;;;;9.37;100.00;101314.56;5066679;28;20533;-77
2024/01/25 07:48:22;;;;;;;0.00;0.00;;;;;;;9.13;100.00;101292.72;5052327;28;20517;-77
2024/01/25 07:51:28;;;;;;;0.00;0.00;;;;;;;9.36;100.00;101326.53;5054646;28;20020;-82
2024/01/25 07:57:27;;;;;;;0.10;0.10;;;;;;;9.26;100.00;101297.94;4966280;28;20052;-80
2024/01/25 08:00:05;;;;;;;0.00;0.00;;;;;;;9.43;100.00;101332.72;5051230;28;20090;-79
2024/01/25 08:02:42;;;;;;;0.00;0.00;;;;;;;9.45;100.00;101322.41;5075849;28;20462;-78
2024/01/25 08:05:26;;;;;;;0.00;0.00;;;;;;;9.40;100.00;101322.28;5052647;28;20094;-78
2024/01/25 08:07:51;;;;;;;0.10;0.10;;;;;;;9.51;100.00;101331.56;5058571;28;20100;-77
2024/01/25 08:10:17;;;;;;;0.00;0.00;;;;;;;9.41;100.00;101326.69;5049147;28;20036;-78
2024/01/25 08:12:47;;;;;;;0.00;0.00;;;;;;;9.39;100.00;101323.38;5063970;28;20028;-78
2024/01/25 08:15:13;;;;;;;0.00;0.00;;;;;;;9.34;100.00;101318.59;5036732;28;20060;-77
2024/01/25 08:17:38;;;;;;;0.00;0.00;;;;;;;9.50;100.00;101336.16;5041946;28;20099;-76
2024/01/25 08:20:14;;;;;;;0.00;0.00;;;;;;;9.39;100.00;101304.25;5055736;28;20051;-78
2024/01/25 08:22:42;;;;;;;0.00;0.00;;;;;;;9.38;100.00;101310.78;5072423;28;20027;-77
2024/01/25 08:25:13;;;;;;;0.00;0.00;;;;;;;9.48;100.00;101321.94;5055883;28;20393;-76
2024/01/25 08:27:39;;;;;;;0.00;0.00;;;;;;;9.58;100.00;101330.38;5069017;28;20017;-77
2024/01/25 08:30:05;;;;;;;0.00;0.00;;;;;;;9.60;100.00;101333.69;5045878;28;20100;-77
2024/01/25 08:32:31;;;;;;;0.00;0.00;;;;;;;9.58;100.00;101327.63;5054578;28;20029;-77
2024/01/25 08:34:58;;;;;;;0.00;0.00;;;;;;;9.63;100.00;101317.91;5093137;28;20035;-76
2024/01/25 08:37:24;;;;;;;0.00;0.00;;;;;;;9.67;100.00;101325.38;5051345;28;20513;-77
2024/01/25 08:39:58;;;;;;;0.00;0.00;;;;;;;9.74;100.00;101328.00;5071517;28;20036;-77
2024/01/25 08:42:24;;;;;;;0.00;0.00;;;;;;;9.74;100.00;101322.53;5062177;28;20048;-77
2024/01/25 08:45:08;;;;;;;0.00;0.00;;;;;;;9.67;100.00;101289.06;5052195;28;20406;-78
2024/01/25 08:47:37;;;;;;;0.00;0.00;;;;;;;9.81;100.00;101308.75;5064092;28;20024;-78
2024/01/25 08:50:03;;;;;;;0.00;0.00;;;;;;;9.92;100.00;101321.56;5070233;28;20025;-77
2024/01/25 08:52:29;;;;;;;0.00;0.00;;;;;;;10.03;100.00;101328.06;5067215;28;20086;-77
2024/01/25 08:54:55;;;;;;;0.00;0.00;;;;;;;9.84;100.00;101298.19;5063754;28;20112;-77
2024/01/25 08:57:20;;;;;;;0.00;0.00;;;;;;;10.06;100.00;101324.84;5079780;28;20017;-79
2024/01/25 08:59:46;;;;;;;0.00;0.00;;;;;;;9.98;100.00;101315.13;5076216;28;20028;-81
2024/01/25 09:02:11;;;;;;;0.00;0.00;;;;;;;10.10;100.00;101331.50;5074868;28;20005;-78
2024/01/25 09:04:42;;;;;;;0.00;0.00;;;;;;;10.05;100.00;101328.69;5059460;28;20484;-78
2024/01/25 09:07:08;;;;;;;0.00;0.00;;;;;;;10.01;100.00;101322.84;5059597;28;20043;-80
2024/01/25 09:09:34;;;;;;;0.00;0.00;;;;;;;9.94;100.00;101314.78;5072234;28;20466;-79
2024/01/25 09:12:11;;;;;;;0.00;0.00;;;;;;;10.04;100.00;101314.16;5083192;28;20466;-79
2024/01/25 09:14:36;;;;;;;0.00;0.00;;;;;;;10.11;100.00;101322.25;5067044;28;20021;-78
2024/01/25 09:17:04;;;;;;;0.00;0.00;;;;;;;10.07;100.00;101307.41;5062631;28;20120;-78
2024/01/25 09:19:34;;;;;;;0.00;0.00;;;;;;;10.28;100.00;101336.00;5068075;28;20017;-78
2024/01/25 09:22:04;;;;;;;0.00;0.00;;;;;;;10.26;100.00;101325.28;5083172;28;20075;-77
2024/01/25 09:24:45;;;;;;;0.00;0.00;;;;;;;10.34;100.00;101318.66;5054902;28;20104;-79
2024/01/25 09:27:12;;;;;;;0.00;0.00;;;;;;;10.45;100.00;101336.09;5049136;28;20028;-77
2024/01/25 09:29:45;;;;;;;0.05;0.05;;;;;;;10.47;100.00;101333.94;5067744;28;20032;-80
2024/01/25 09:32:10;;;;;;;0.00;0.00;;;;;;;10.20;100.00;101277.06;5074271;28;20474;-79
2024/01/25 09:34:37;;;;;;;0.00;0.00;;;;;;;10.40;100.00;101300.44;5029792;28;20043;-78
2024/01/25 09:37:05;;;;;;;0.00;0.00;;;;;;;10.45;100.00;101293.19;5067475;28;20017;-78
2024/01/25 09:39:36;;;;;;;0.00;0.00;;;;;;;10.69;100.00;101311.38;5059165;28;20047;-79
2024/01/25 09:42:31;;;;;;;0.00;0.00;;;;;;;10.72;100.00;101306.25;5069935;28;20078;-80
2024/01/25 09:48:04;;;;;;;;;;;;;;;;;;;;;
2024/01/25 09:50:33;;;;;;;0.00;0.00;;;;;;;11.18;100.00;101322.63;5064666;28;20112;-78
2024/01/25 09:53:10;;;;;;;0.00;0.00;;;;;;;11.47;100.00;101323.38;5066139;28;20031;-80
2024/01/25 09:55:51;;;;;;;;;;;;;;;;;;;;;
2024/01/25 09:58:31;;;;;;;0.00;0.00;;;;;;;11.58;100.00;101310.69;5070470;28;20103;-78
2024/01/25 10:00:56;;;;;;;0.00;0.00;;;;;;;11.61;100.00;101310.19;5081171;28;20056;-79
2024/01/25 10:03:25;;;;;;;0.00;0.00;;;;;;;11.64;100.00;101295.16;5043305;28;20383;-78
2024/01/25 10:05:50;;;;;;;0.00;0.00;;;;;;;11.81;100.00;101326.09;5079083;28;20025;-79
2024/01/25 10:08:20;;;;;;;0.00;0.00;;;;;;;11.69;100.00;101300.69;5061538;28;20112;-79
2024/01/25 10:10:45;;;;;;;0.00;0.00;;;;;;;11.71;100.00;101315.00;5073794;28;20028;-78
2024/01/25 10:13:13;;;;;;;0.00;0.00;;;;;;;11.84;100.00;101309.16;5088333;28;20020;-78
2024/01/25 10:15:41;;;;;;;0.00;0.00;;;;;;;12.02;100.00;101310.78;5073456;28;20024;-79
2024/01/25 10:18:13;;;;;;;0.00;0.00;;;;;;;12.07;100.00;101323.72;5077806;28;20024;-78
2024/01/25 10:20:44;;;;;;;0.00;0.00;;;;;;;12.04;100.00;101308.59;5068967;28;20041;-80
2024/01/25 10:23:12;;;;;;;0.00;0.00;;;;;;;12.08;100.00;101286.19;5056077;28;20025;-79
2024/01/25 10:25:38;;;;;;;0.00;0.00;;;;;;;12.31;100.00;101310.59;5068890;28;20005;-77
2024/01/25 10:28:05;;;;;;;0.00;0.00;;;;;;;12.50;100.00;101308.34;5048402;28;20032;-78
2024/01/25 10:30:36;;;;;;;0.00;0.00;;;;;;;12.71;100.00;101312.13;5075412;28;20059;-79
2024/01/25 10:33:04;;;;;;;0.00;0.00;;;;;;;12.87;100.00;101304.88;5071727;28;20117;-79
2024/01/25 10:35:31;;;;;;;0.00;0.00;;;;;;;12.97;100.00;101304.16;5074441;28;20017;-76
2024/01/25 10:38:03;;;;;;;0.00;0.00;;;;;;;12.88;100.00;101278.25;5058929;28;20063;-78
2024/01/25 10:40:35;;;;;;;0.00;0.00;;;;;;;13.25;100.00;101272.78;5074969;28;20441;-78
2024/01/25 10:43:01;;;;;;;0.00;0.00;;;;;;;13.77;100.00;101298.72;5067560;28;20104;-77
2024/01/25 10:45:26;;;;;;;0.00;0.00;;;;;;;14.66;100.00;101300.75;5075532;28;20060;-79
2024/01/25 10:47:52;;;;;;;0.00;0.00;;;;;;;15.45;100.00;101290.31;5054062;28;20424;-76
2024/01/25 10:50:17;;;;;;;0.00;0.00;;;;;;;16.28;100.00;101293.66;5053786;28;20029;-77
2024/01/25 10:52:44;;;;;;;0.00;0.00;;;;;;;16.53;100.00;101298.22;5057245;28;20028;-77
2024/01/25 10:55:12;;;;;;;0.00;0.00;;;;;;;16.89;100.00;101289.75;5085281;28;20025;-76
2024/01/25 10:57:39;;;;;;;0.00;0.00;;;;;;;17.78;100.00;101293.34;5072675;28;20040;-76
2024/01/25 11:00:11;;;;;;;0.00;0.00;;;;;;;17.62;100.00;101268.63;5072776;28;20025;-76
2024/01/25 11:02:37;;;;;;;0.00;0.00;;;;;;;17.06;96.88;101277.44;5064027;28;20032;-78
2024/01/25 11:05:20;;;;;;;;;;;;;;;;;;;;;
2024/01/25 11:08:26;;;;;;;0.00;0.00;;;;;;;17.03;94.27;101262.28;5076752;28;20039;-78
2024/01/25 11:10:59;;;;;;;0.00;0.00;;;;;;;19.04;86.89;101295.00;5062069;28;20033;-78
2024/01/25 11:13:29;;;;;;;0.00;0.00;;;;;;;19.63;77.19;101278.75;5059870;28;20033;-76
2024/01/25 11:15:55;;;;;;;0.00;0.00;;;;;;;19.30;81.11;101270.44;5068416;28;21249;-77
2024/01/25 11:18:25;;;;;;;0.00;0.00;;;;;;;19.73;79.58;101261.88;5079099;28;20039;-77
2024/01/25 11:20:51;;;;;;;0.00;0.00;;;;;;;21.00;77.21;101286.38;5068108;28;20147;-78
2024/01/25 11:23:28;;;;;;;0.00;0.00;;;;;;;21.14;66.13;101280.75;5047530;28;20056;-77
2024/01/25 11:25:54;;;;;;;0.00;0.00;;;;;;;21.22;67.61;101261.31;5064809;28;20087;-78
2024/01/25 11:28:20;;;;;;;0.00;0.00;;;;;;;20.85;68.43;101256.97;5053987;28;20021;-78
2024/01/25 11:30:47;;;;;;;0.00;0.00;;;;;;;20.13;67.41;101261.38;5066661;28;20066;-77
2024/01/25 11:33:14;;;;;;;0.00;0.00;;;;;;;20.55;70.85;101259.34;5081844;28;20111;-79
2024/01/25 11:35:42;;;;;;;0.00;0.00;;;;;;;20.63;67.62;101257.75;5061643;28;20480;-78
2024/01/25 11:38:10;;;;;;;0.00;0.00;;;;;;;21.19;68.81;101261.16;5058020;28;20060;-78
2024/01/25 11:40:36;;;;;;;0.00;0.00;;;;;;;21.61;65.03;101256.13;5090761;28;20028;-76
2024/01/25 11:43:14;;;;;;;0.00;0.00;;;;;;;21.64;68.17;101232.41;5037128;28;20028;-77
2024/01/25 11:45:42;;;;;;;0.00;0.00;;;;;;;22.41;61.21;101233.75;5070329;28;20063;-78
2024/01/25 11:48:10;;;;;;;0.00;0.00;;;;;;;21.45;64.14;101259.31;5043454;28;20008;-78
2024/01/25 11:50:36;;;;;;;0.00;0.00;;;;;;;20.51;68.28;101274.97;5073836;28;20116;-80
2024/01/25 11:53:01;;;;;;;0.00;0.00;;;;;;;20.26;69.84;101256.94;5038878;28;20100;-78
2024/01/25 11:55:29;;;;;;;0.00;0.00;;;;;;;19.18;70.80;101251.53;5054282;28;20385;-80
2024/01/25 11:58:02;;;;;;;0.00;0.00;;;;;;;18.64;74.73;101246.28;5038484;28;20031;-80
2024/01/25 12:00:28;;;;;;;0.00;0.00;;;;;;;18.19;79.01;101225.63;5057066;28;20032;-77
2024/01/25 12:03:09;;;;;;;0.00;0.00;;;;;;;19.40;79.06;101202.91;5046137;28;20035;-79